Time;durP1;ratioP1;P1;durP2;ratioP2;P2;SDS_P1;SDS_P2;PMS_P1;PMS_P2;Temp;Humidity;BMP_temperature;BMP_pressure;BME280_temperature;BME280_humidity;BME280_pressure;Samples;Min_cycle;Max_cycle;Signal;HPM_P1;HPM_P2
2021/08/18 00:00:14;;;;;;;1999.90;999.90;;;15.00;99.90;;;;;;5014039;28;20017;-89
2021/08/18 00:02:40;;;;;;;1999.90;999.90;;;15.00;99.90;;;;;;5013752;28;20030;-88
2021/08/18 00:05:09;;;;;;;1999.90;999.90;;;15.00;99.90;;;;;;5013919;28;20029;-87
2021/08/18 00:07:35;;;;;;;1999.90;999.90;;;15.00;99.90;;;;;;5013738;28;20033;-90
2021/08/18 00:10:01;;;;;;;1999.90;999.90;;;15.10;99.90;;;;;;5013859;28;20021;-87
2021/08/18 00:12:27;;;;;;;1999.90;999.90;;;15.10;99.90;;;;;;5013896;28;20106;-87
2021/08/18 00:14:53;;;;;;;1999.90;999.90;;;15.10;99.90;;;;;;5013617;28;20060;-86
2021/08/18 00:17:19;;;;;;;1999.90;999.90;;;15.10;99.90;;;;;;5013022;28;20025;-87
2021/08/18 00:19:45;;;;;;;1999.90;999.90;;;15.10;99.90;;;;;;5013590;28;20129;-86
2021/08/18 00:22:11;;;;;;;1999.90;999.90;;;15.10;99.90;;;;;;5013269;28;20103;-89
2021/08/18 00:24:37;;;;;;;1999.90;999.90;;;15.00;99.90;;;;;;5013355;28;20028;-88
2021/08/18 00:27:02;;;;;;;1999.90;999.90;;;15.00;99.90;;;;;;5013567;28;20030;-87
2021/08/18 00:29:28;;;;;;;1999.90;999.90;;;15.10;99.90;;;;;;5013352;28;20034;-88
2021/08/18 00:31:54;;;;;;;1999.90;999.90;;;15.10;99.90;;;;;;5013129;28;20029;-85
2021/08/18 00:34:20;;;;;;;1999.90;999.90;;;15.10;99.90;;;;;;5013258;28;20064;-87
2021/08/18 00:36:46;;;;;;;1999.90;999.90;;;15.00;99.90;;;;;;5013355;28;20049;-88
2021/08/18 00:39:11;;;;;;;1999.90;999.90;;;15.00;99.90;;;;;;5013394;28;20042;-86
2021/08/18 00:41:37;;;;;;;1999.90;999.90;;;15.00;99.90;;;;;;5012999;28;20033;-88
2021/08/18 00:44:04;;;;;;;1999.90;999.90;;;14.90;99.90;;;;;;5013130;28;20531;-87
2021/08/18 00:46:30;;;;;;;1999.90;999.90;;;14.80;99.90;;;;;;5013331;28;20026;-87
2021/08/18 00:48:55;;;;;;;1999.90;999.90;;;14.90;99.90;;;;;;5013122;28;20087;-87
2021/08/18 00:51:21;;;;;;;1999.90;999.90;;;14.80;99.90;;;;;;5013350;28;20018;-87
2021/08/18 00:53:47;;;;;;;1999.90;999.90;;;14.80;99.90;;;;;;5013258;28;20028;-88
2021/08/18 00:56:13;;;;;;;1999.90;999.90;;;14.80;99.90;;;;;;5013262;28;20037;-88
2021/08/18 00:58:39;;;;;;;1999.90;999.90;;;14.80;99.90;;;;;;5014633;28;20029;-86
2021/08/18 01:01:05;;;;;;;1999.90;999.90;;;14.80;99.90;;;;;;5013315;28;20022;-88
2021/08/18 01:03:33;;;;;;;1999.90;999.90;;;14.80;99.90;;;;;;5014580;28;20026;-87
2021/08/18 01:05:59;;;;;;;1999.90;999.90;;;14.80;99.90;;;;;;5013206;28;20503;-88
2021/08/18 01:08:24;;;;;;;1999.90;999.90;;;14.90;99.90;;;;;;5013172;28;20038;-88
2021/08/18 01:10:50;;;;;;;1999.90;999.90;;;14.90;99.90;;;;;;5013291;28;20113;-86
2021/08/18 01:13:16;;;;;;;1999.90;999.90;;;14.80;99.90;;;;;;5012989;28;20026;-88
2021/08/18 01:15:42;;;;;;;1999.90;999.90;;;14.80;99.90;;;;;;5013058;28;20445;-89
2021/08/18 01:18:08;;;;;;;1999.90;999.90;;;14.80;99.90;;;;;;5012931;28;20118;-86
2021/08/18 01:20:38;;;;;;;1999.90;999.90;;;14.90;99.90;;;;;;5013160;28;20064;-85
2021/08/18 01:23:12;;;;;;;1999.90;999.90;;;14.90;99.90;;;;;;5012945;28;20026;-87
2021/08/18 01:25:40;;;;;;;1999.90;999.90;;;14.90;99.90;;;;;;5013186;28;20470;-88
2021/08/18 01:28:07;;;;;;;1999.90;999.90;;;15.00;99.90;;;;;;5014700;28;20029;-89
2021/08/18 01:30:35;;;;;;;1999.90;999.90;;;15.00;99.90;;;;;;5016768;28;20045;-88
2021/08/18 01:33:08;;;;;;;1999.90;999.90;;;15.00;99.90;;;;;;5016468;28;20144;-86
2021/08/18 01:35:36;;;;;;;1999.90;999.90;;;14.90;99.90;;;;;;5016595;28;20047;-89
2021/08/18 01:38:04;;;;;;;1999.90;999.90;;;14.90;99.90;;;;;;5017800;28;20022;-87
2021/08/18 01:40:30;;;;;;;1999.90;999.90;;;14.90;99.90;;;;;;5016284;28;20029;-90
2021/08/18 01:42:57;;;;;;;1999.90;999.90;;;14.90;99.90;;;;;;5016435;28;20068;-87
2021/08/18 01:45:32;;;;;;;1999.90;999.90;;;14.90;99.90;;;;;;5016548;28;20096;-88
2021/08/18 01:48:05;;;;;;;1999.90;999.90;;;14.90;99.90;;;;;;5016306;28;20038;-85
2021/08/18 01:50:30;;;;;;;1999.90;999.90;;;14.90;99.90;;;;;;5016086;28;20493;-89
2021/08/18 01:52:56;;;;;;;1999.90;999.90;;;14.90;99.90;;;;;;5016206;28;20025;-89
2021/08/18 01:55:26;;;;;;;1999.90;999.90;;;14.90;99.90;;;;;;5016379;28;20022;-88
2021/08/18 01:57:53;;;;;;;1999.90;999.90;;;14.90;99.90;;;;;;5016353;28;20026;-87
2021/08/18 02:00:19;;;;;;;1999.90;999.90;;;14.90;99.90;;;;;;5016118;28;20117;-86
2021/08/18 02:02:45;;;;;;;1999.90;999.90;;;14.90;99.90;;;;;;5015998;28;20113;-87
2021/08/18 02:05:11;;;;;;;1999.90;999.90;;;14.80;99.90;;;;;;5015918;28;20172;-89
2021/08/18 02:07:37;;;;;;;1999.90;999.90;;;14.80;99.90;;;;;;5015758;28;20025;-87
2021/08/18 02:10:11;;;;;;;1999.90;999.90;;;14.80;99.90;;;;;;5016012;28;20068;-87
2021/08/18 02:12:37;;;;;;;1999.90;999.90;;;14.80;99.90;;;;;;5015263;28;20470;-88
2021/08/18 02:15:15;;;;;;;1999.90;999.90;;;14.90;99.90;;;;;;5015662;28;20025;-89
2021/08/18 02:17:41;;;;;;;1999.90;999.90;;;14.90;99.90;;;;;;5015995;28;20113;-89
2021/08/18 02:20:11;;;;;;;1999.90;999.90;;;14.90;99.90;;;;;;5015895;28;20127;-88
2021/08/18 02:22:37;;;;;;;1999.90;999.90;;;14.80;99.90;;;;;;5015694;28;20029;-87
2021/08/18 02:25:03;;;;;;;1999.90;999.90;;;14.80;99.90;;;;;;5015743;28;20129;-88
2021/08/18 02:27:29;;;;;;;1999.90;999.90;;;14.90;99.90;;;;;;5015676;28;20109;-87
2021/08/18 02:29:55;;;;;;;1999.90;999.90;;;14.80;99.90;;;;;;5015741;28;20442;-86
2021/08/18 02:32:21;;;;;;;1999.90;999.90;;;14.70;99.90;;;;;;5015568;28;20022;-86
2021/08/18 02:34:47;;;;;;;1999.90;999.90;;;14.70;99.90;;;;;;5015632;28;20121;-87
2021/08/18 02:37:12;;;;;;;1999.90;999.90;;;14.70;99.90;;;;;;5015734;28;20049;-89
2021/08/18 02:39:38;;;;;;;1999.90;999.90;;;14.80;99.90;;;;;;5014987;28;20026;-88
2021/08/18 02:42:05;;;;;;;1999.90;999.90;;;14.80;99.90;;;;;;5014781;28;20049;-86
2021/08/18 02:44:31;;;;;;;1999.90;999.90;;;14.80;99.90;;;;;;5014038;28;20057;-88
2021/08/18 02:46:57;;;;;;;1999.90;999.90;;;14.90;99.90;;;;;;5014123;28;20076;-90
2021/08/18 02:49:22;;;;;;;1999.90;999.90;;;14.90;99.90;;;;;;5014132;28;20037;-86
2021/08/18 02:51:48;;;;;;;1999.90;999.90;;;15.00;99.90;;;;;;5014146;28;20496;-86
2021/08/18 02:54:14;;;;;;;1999.90;999.90;;;15.00;99.90;;;;;;5014040;28;20045;-88
2021/08/18 02:56:40;;;;;;;1999.90;999.90;;;14.90;99.90;;;;;;5015001;28;20052;-88
2021/08/18 02:59:05;;;;;;;1999.90;999.90;;;15.00;99.90;;;;;;5014167;28;20097;-88
2021/08/18 03:01:31;;;;;;;1999.90;999.90;;;14.90;99.90;;;;;;5014173;28;20017;-86
2021/08/18 03:03:57;;;;;;;1999.90;999.90;;;14.90;99.90;;;;;;5015258;28;20026;-88
2021/08/18 03:06:22;;;;;;;1999.90;999.90;;;15.00;99.90;;;;;;5015327;28;20025;-88
2021/08/18 03:08:48;;;;;;;1999.90;999.90;;;15.00;99.90;;;;;;5015372;28;20037;-90
2021/08/18 03:11:14;;;;;;;1999.90;999.90;;;15.00;99.90;;;;;;5015217;28;20561;-89
2021/08/18 03:13:39;;;;;;;1999.90;999.90;;;14.90;99.90;;;;;;5014869;28;20032;-88
2021/08/18 03:16:05;;;;;;;1999.90;999.90;;;14.90;99.90;;;;;;5015248;28;20022;-88
2021/08/18 03:18:31;;;;;;;1999.90;999.90;;;14.90;99.90;;;;;;5014846;28;20084;-88
2021/08/18 03:20:57;;;;;;;1999.90;999.90;;;14.80;99.90;;;;;;5014677;28;20084;-89
2021/08/18 03:23:24;;;;;;;1999.90;999.90;;;14.90;99.90;;;;;;5014901;28;20025;-90
2021/08/18 03:25:50;;;;;;;1999.90;999.90;;;14.90;99.90;;;;;;5014963;28;20033;-87
2021/08/18 03:28:16;;;;;;;1999.90;999.90;;;14.90;99.90;;;;;;5014715;28;20038;-86
2021/08/18 03:30:42;;;;;;;1999.90;999.90;;;14.90;99.90;;;;;;5014738;28;20018;-88
2021/08/18 03:33:07;;;;;;;1999.90;999.90;;;14.90;99.90;;;;;;5014843;28;20087;-87
2021/08/18 03:35:33;;;;;;;1999.90;999.90;;;14.90;99.90;;;;;;5015805;28;20021;-88
2021/08/18 03:37:59;;;;;;;1999.90;999.90;;;14.90;99.90;;;;;;5014742;28;20026;-87
2021/08/18 03:40:25;;;;;;;1999.90;999.90;;;14.90;99.90;;;;;;5014692;28;20033;-87
2021/08/18 03:42:51;;;;;;;1999.90;999.90;;;14.90;99.90;;;;;;5014467;28;20394;-88
2021/08/18 03:45:17;;;;;;;1999.90;999.90;;;14.90;99.90;;;;;;5015609;28;20052;-86
2021/08/18 03:47:43;;;;;;;1999.90;999.90;;;14.90;99.90;;;;;;5013926;28;20469;-90
2021/08/18 03:50:10;;;;;;;1999.90;999.90;;;14.80;99.90;;;;;;5014367;28;20026;-89
2021/08/18 03:52:40;;;;;;;1999.90;999.90;;;14.80;99.90;;;;;;5013436;28;20018;-88
2021/08/18 03:55:07;;;;;;;1999.90;999.90;;;14.80;99.90;;;;;;5014780;28;20030;-88
2021/08/18 03:57:32;;;;;;;1999.90;999.90;;;14.90;99.90;;;;;;5014538;28;20030;-88
2021/08/18 03:59:59;;;;;;;1999.90;999.90;;;14.90;99.90;;;;;;5014393;28;20481;-87
2021/08/18 04:02:25;;;;;;;1999.90;999.90;;;14.80;99.90;;;;;;5014313;28;20029;-88
2021/08/18 04:04:51;;;;;;;1999.90;999.90;;;14.90;99.90;;;;;;5014457;28;20063;-87
2021/08/18 04:07:17;;;;;;;1999.90;999.90;;;14.90;99.90;;;;;;5014333;28;20025;-88
2021/08/18 04:09:43;;;;;;;1999.90;999.90;;;14.90;99.90;;;;;;5017584;28;20054;-89
2021/08/18 04:12:08;;;;;;;1999.90;999.90;;;14.90;99.90;;;;;;4999073;28;20026;-88
2021/08/18 04:14:34;;;;;;;1999.90;999.90;;;15.30;99.90;;;;;;5016137;28;20073;-90
2021/08/18 04:17:00;;;;;;;1999.90;999.90;;;17.70;99.90;;;;;;5016183;28;20022;-90
2021/08/18 04:19:25;;;;;;;1999.90;999.90;;;18.50;99.90;;;;;;5021284;28;20037;-91
2021/08/18 04:21:51;;;;;;;1999.90;999.90;;;18.20;99.90;;;;;;5017282;28;20086;-91
2021/08/18 04:24:17;;;;;;;1999.90;999.90;;;17.80;99.90;;;;;;5014027;28;20033;-90
2021/08/18 04:26:43;;;;;;;1999.90;999.90;;;18.00;99.90;;;;;;4997941;28;20465;-91
2021/08/18 04:29:09;;;;;;;1999.90;999.90;;;17.60;99.90;;;;;;5014187;28;20037;-91
2021/08/18 04:31:34;;;;;;;1999.90;999.90;;;17.50;99.90;;;;;;5013733;28;20084;-84
2021/08/18 04:34:00;;;;;;;1999.90;999.90;;;17.60;99.90;;;;;;5013459;28;20118;-85
2021/08/18 04:36:25;;;;;;;1999.90;999.90;;;17.40;99.90;;;;;;5013479;28;20389;-88
2021/08/18 04:38:51;;;;;;;1999.90;999.90;;;17.40;99.90;;;;;;5019742;28;20029;-86
2021/08/18 04:41:17;;;;;;;1999.90;999.90;;;18.30;99.90;;;;;;5021058;28;20041;-85
2021/08/18 04:43:44;;;;;;;1999.90;999.90;;;18.60;99.90;;;;;;5020349;28;20072;-85
2021/08/18 04:46:09;;;;;;;1999.90;999.90;;;19.20;99.90;;;;;;5019330;28;20028;-86
2021/08/18 04:48:35;;;;;;;1999.90;999.90;;;19.00;99.30;;;;;;5019377;28;20038;-86
2021/08/18 04:51:02;;;;;;;1999.90;999.90;;;18.90;99.90;;;;;;5019271;28;20041;-86
2021/08/18 04:53:28;;;;;;;1999.90;999.90;;;19.30;99.40;;;;;;5019177;28;20452;-85
2021/08/18 04:55:54;;;;;;;1999.90;999.90;;;19.20;99.20;;;;;;5015819;28;20018;-87
2021/08/18 04:58:19;;;;;;;1999.90;999.90;;;19.00;99.80;;;;;;5017319;28;20037;-85
2021/08/18 05:00:45;;;;;;;1999.90;999.90;;;18.80;99.90;;;;;;5015169;28;20022;-84
2021/08/18 05:03:12;;;;;;;1999.90;999.90;;;18.80;99.90;;;;;;5016313;28;20037;-84
2021/08/18 05:05:38;;;;;;;1999.90;999.90;;;19.10;99.80;;;;;;5017929;28;20033;-84
2021/08/18 05:08:04;;;;;;;1999.90;999.90;;;19.10;98.90;;;;;;5017529;28;20033;-84
2021/08/18 05:10:31;;;;;;;1999.90;999.90;;;19.10;99.50;;;;;;5017086;28;20022;-86
2021/08/18 05:12:56;;;;;;;1999.90;999.90;;;19.20;99.30;;;;;;5016307;28;20492;-84
2021/08/18 05:15:23;;;;;;;1999.90;999.90;;;19.20;98.10;;;;;;5016841;28;20034;-84
2021/08/18 05:17:49;;;;;;;1999.90;999.90;;;19.30;98.20;;;;;;5016955;28;20024;-85
2021/08/18 05:20:15;;;;;;;1999.90;999.90;;;19.30;96.90;;;;;;5017505;28;20108;-84
2021/08/18 05:22:41;;;;;;;1999.90;999.90;;;18.90;98.30;;;;;;5016647;28;20028;-86
2021/08/18 05:25:09;;;;;;;1999.90;999.90;;;18.60;99.50;;;;;;5016595;28;20022;-85
2021/08/18 05:27:35;;;;;;;1999.90;999.90;;;19.20;98.90;;;;;;5016628;28;20052;-82
2021/08/18 05:30:01;;;;;;;1999.90;999.90;;;19.60;96.10;;;;;;5016682;28;20058;-82
2021/08/18 05:32:26;;;;;;;1999.90;999.90;;;19.50;95.30;;;;;;5017572;28;20022;-80
2021/08/18 05:34:52;;;;;;;1999.90;999.90;;;19.50;94.50;;;;;;5018358;28;20079;-83
2021/08/18 05:37:18;;;;;;;1999.90;999.90;;;19.00;95.50;;;;;;5018431;28;20029;-84
2021/08/18 05:39:43;;;;;;;1999.90;999.90;;;18.70;98.10;;;;;;5021502;28;20022;-85
2021/08/18 05:42:09;;;;;;;1999.90;999.90;;;18.20;99.90;;;;;;5022712;28;20048;-83
2021/08/18 05:44:35;;;;;;;1999.90;999.90;;;18.00;99.90;;;;;;5021315;28;20037;-85
2021/08/18 05:47:01;;;;;;;1999.90;999.90;;;17.90;99.90;;;;;;5017767;28;20034;-83
2021/08/18 05:49:26;;;;;;;1999.90;999.90;;;17.80;99.90;;;;;;5018177;28;20052;-84
2021/08/18 05:51:52;;;;;;;1999.90;999.90;;;17.80;99.90;;;;;;5017451;28;20079;-86
2021/08/18 05:54:18;;;;;;;1999.90;999.90;;;18.30;99.90;;;;;;5017604;28;20087;-85
2021/08/18 05:56:45;;;;;;;1999.90;999.90;;;18.50;99.90;;;;;;5018103;28;20022;-82
2021/08/18 05:59:11;;;;;;;1999.90;999.90;;;18.70;99.90;;;;;;5017670;28;20026;-85
2021/08/18 06:01:37;;;;;;;1999.90;999.90;;;19.20;99.10;;;;;;5016589;28;20029;-83
2021/08/18 06:04:03;;;;;;;1999.90;999.90;;;18.80;99.90;;;;;;5015512;28;20026;-80
2021/08/18 06:06:28;;;;;;;1999.90;999.90;;;18.90;99.90;;;;;;5015484;28;20466;-87
2021/08/18 06:08:55;;;;;;;1999.90;999.90;;;18.60;99.90;;;;;;5015878;28;20115;-88
2021/08/18 06:11:27;;;;;;;1999.90;999.90;;;19.00;99.90;;;;;;5016785;28;20388;-93
2021/08/18 06:13:53;;;;;;;1999.90;999.90;;;19.00;99.90;;;;;;5009633;28;20101;-92
2021/08/18 06:16:20;;;;;;;1999.90;999.90;;;18.90;99.90;;;;;;5024664;28;20033;-91
2021/08/18 06:18:48;;;;;;;1999.90;999.90;;;18.90;98.60;;;;;;5017815;28;20033;-91
2021/08/18 06:21:14;;;;;;;1999.90;999.90;;;19.10;98.60;;;;;;5016629;28;20036;-88
2021/08/18 06:23:40;;;;;;;1999.90;999.90;;;18.80;98.50;;;;;;5016483;28;20034;-92
2021/08/18 06:26:06;;;;;;;1999.90;999.90;;;19.10;98.60;;;;;;5016224;28;20064;-91
2021/08/18 06:28:32;;;;;;;1999.90;999.90;;;18.90;97.90;;;;;;5016244;28;20058;-92
2021/08/18 06:30:58;;;;;;;1999.90;999.90;;;18.70;97.70;;;;;;5016751;28;20025;-89
2021/08/18 06:33:24;;;;;;;1999.90;999.90;;;19.00;98.00;;;;;;5014725;28;20048;-87
2021/08/18 06:35:49;;;;;;;1999.90;999.90;;;19.10;97.10;;;;;;5016526;28;20176;-82
2021/08/18 06:38:15;;;;;;;1999.90;999.90;;;18.80;97.90;;;;;;5015192;28;20521;-79
2021/08/18 06:40:41;;;;;;;1999.90;999.90;;;18.50;99.40;;;;;;5015278;28;20432;-84
2021/08/18 06:43:06;;;;;;;1999.90;999.90;;;18.20;99.90;;;;;;5014624;28;20045;-82
2021/08/18 06:45:32;;;;;;;1999.90;999.90;;;18.30;99.90;;;;;;5015336;28;20465;-83
2021/08/18 06:47:58;;;;;;;1999.90;999.90;;;18.10;99.90;;;;;;5015184;28;20396;-82
2021/08/18 06:50:24;;;;;;;1999.90;999.90;;;18.00;99.90;;;;;;5015098;28;20030;-82
2021/08/18 06:52:50;;;;;;;1999.90;999.90;;;18.20;99.90;;;;;;5014844;28;20036;-83
2021/08/18 06:55:16;;;;;;;1999.90;999.90;;;18.10;99.90;;;;;;5015320;28;20430;-91
2021/08/18 06:57:41;;;;;;;1999.90;999.90;;;18.10;99.90;;;;;;5017055;28;20029;-89
2021/08/18 07:00:09;;;;;;;1999.90;999.90;;;17.90;99.90;;;;;;5017220;28;20033;-90
2021/08/18 07:02:45;;;;;;;1999.90;999.90;;;17.60;99.90;;;;;;5014702;28;20061;-86
2021/08/18 07:05:12;;;;;;;1999.90;999.90;;;17.80;99.90;;;;;;5013861;28;20033;-86
2021/08/18 07:07:37;;;;;;;1999.90;999.90;;;17.60;99.90;;;;;;5013540;28;20040;-86
2021/08/18 07:10:04;;;;;;;1999.90;999.90;;;17.60;99.90;;;;;;5013579;28;20120;-86
2021/08/18 07:12:30;;;;;;;1999.90;999.90;;;17.50;99.90;;;;;;5013786;28;20026;-87
2021/08/18 07:14:56;;;;;;;1999.90;999.90;;;17.50;99.90;;;;;;5013502;28;20030;-86
2021/08/18 07:17:22;;;;;;;1999.90;999.90;;;17.50;99.90;;;;;;5013398;28;20025;-88
2021/08/18 07:19:47;;;;;;;1999.90;999.90;;;17.40;99.90;;;;;;5013489;28;20125;-88
2021/08/18 07:22:13;;;;;;;1999.90;999.90;;;17.40;99.90;;;;;;5013330;28;20088;-86
2021/08/18 07:24:38;;;;;;;1999.90;999.90;;;17.50;99.90;;;;;;5013520;28;20021;-87
2021/08/18 07:27:04;;;;;;;1999.90;999.90;;;17.50;98.70;;;;;;5013125;28;20056;-87
2021/08/18 07:29:30;;;;;;;1999.90;999.90;;;17.50;98.20;;;;;;5013204;28;20057;-88
2021/08/18 07:31:57;;;;;;;1999.90;999.90;;;17.60;99.30;;;;;;4996869;28;20069;-85
2021/08/18 07:34:23;;;;;;;1999.90;999.90;;;17.70;97.70;;;;;;5013288;28;20029;-86
2021/08/18 07:36:48;;;;;;;1999.90;999.90;;;17.90;99.30;;;;;;5013412;28;20542;-86
2021/08/18 07:39:14;;;;;;;1999.90;999.90;;;18.00;99.50;;;;;;5013199;28;20537;-87
2021/08/18 07:41:39;;;;;;;1999.90;999.90;;;18.30;96.70;;;;;;5012791;28;20032;-86
2021/08/18 07:44:05;;;;;;;1999.90;999.90;;;18.40;94.20;;;;;;5013070;28;20482;-85
2021/08/18 07:46:32;;;;;;;1999.90;999.90;;;18.60;94.10;;;;;;5014167;28;20112;-86
2021/08/18 07:48:57;;;;;;;1999.90;999.90;;;18.80;92.70;;;;;;5013103;28;20038;-86
2021/08/18 07:51:23;;;;;;;1999.90;999.90;;;18.90;89.80;;;;;;5012807;28;20108;-86
2021/08/18 07:53:49;;;;;;;1999.90;999.90;;;18.80;85.50;;;;;;5012807;28;20026;-88
2021/08/18 07:56:15;;;;;;;1999.90;999.90;;;18.60;88.00;;;;;;5012721;28;20022;-86
2021/08/18 07:58:40;;;;;;;1999.90;999.90;;;18.70;90.60;;;;;;5012656;28;20036;-85
2021/08/18 08:01:06;;;;;;;1999.90;999.90;;;19.00;88.80;;;;;;5012657;28;20080;-88
2021/08/18 08:03:31;;;;;;;1999.90;999.90;;;19.10;84.00;;;;;;5012681;28;20148;-85
2021/08/18 08:05:57;;;;;;;1999.90;999.90;;;19.20;83.30;;;;;;5012519;28;20033;-86
2021/08/18 08:08:23;;;;;;;1999.90;999.90;;;19.40;82.80;;;;;;5012478;28;20061;-87
2021/08/18 08:10:49;;;;;;;1999.90;999.90;;;19.60;83.50;;;;;;5012571;28;20525;-86
2021/08/18 08:13:14;;;;;;;1999.90;999.90;;;19.90;82.10;;;;;;5012488;28;20025;-86
2021/08/18 08:15:40;;;;;;;1999.90;999.90;;;20.10;81.70;;;;;;5012493;28;20032;-85
2021/08/18 08:18:06;;;;;;;1999.90;999.90;;;20.20;81.10;;;;;;5012339;28;20030;-85
2021/08/18 08:20:31;;;;;;;1999.90;999.90;;;20.20;79.40;;;;;;5012615;28;20034;-84
2021/08/18 08:22:58;;;;;;;1999.90;999.90;;;20.40;80.10;;;;;;5012246;28;20026;-83
2021/08/18 08:25:23;;;;;;;1999.90;999.90;;;20.30;78.10;;;;;;5012305;28;20026;-85
2021/08/18 08:27:49;;;;;;;1999.90;999.90;;;20.30;77.20;;;;;;5012331;28;20026;-84
2021/08/18 08:30:15;;;;;;;1999.90;999.90;;;20.20;75.90;;;;;;5012166;28;20026;-85
2021/08/18 08:32:41;;;;;;;1999.90;999.90;;;20.00;76.50;;;;;;5012310;28;20022;-84
2021/08/18 08:35:08;;;;;;;1999.90;999.90;;;19.90;80.10;;;;;;5012309;28;20052;-84
2021/08/18 08:37:34;;;;;;;1999.90;999.90;;;19.90;82.90;;;;;;5011552;28;20466;-84
2021/08/18 08:40:00;;;;;;;1999.90;999.90;;;20.00;81.10;;;;;;5012293;28;20037;-84
2021/08/18 08:42:28;;;;;;;1999.90;999.90;;;20.10;82.10;;;;;;5011784;28;20054;-85
2021/08/18 08:44:57;;;;;;;1999.90;999.90;;;20.30;81.40;;;;;;5012510;28;20041;-84
2021/08/18 08:47:23;;;;;;;1999.90;999.90;;;20.30;81.00;;;;;;5012174;28;20033;-86
2021/08/18 08:49:49;;;;;;;1999.90;999.90;;;20.30;82.60;;;;;;5012187;28;20051;-85
2021/08/18 08:52:15;;;;;;;1999.90;999.90;;;20.60;85.00;;;;;;5011982;28;20114;-86
2021/08/18 08:54:44;;;;;;;1999.90;999.90;;;20.70;80.40;;;;;;5012220;28;20038;-87
2021/08/18 08:57:13;;;;;;;1999.90;999.90;;;20.50;79.70;;;;;;5012059;28;20049;-86
2021/08/18 08:59:39;;;;;;;1999.90;999.90;;;20.30;80.90;;;;;;5012035;28;20113;-85
2021/08/18 09:02:08;;;;;;;1999.90;999.90;;;20.10;82.00;;;;;;5011925;28;20022;-85
2021/08/18 09:04:37;;;;;;;1999.90;999.90;;;20.00;83.50;;;;;;5011838;28;20056;-87
2021/08/18 09:07:21;;;;;;;1999.90;999.90;;;20.00;82.00;;;;;;5011839;28;20080;-84
2021/08/18 09:09:51;;;;;;;1999.90;999.90;;;20.10;82.90;;;;;;5011938;28;20069;-83
2021/08/18 09:12:19;;;;;;;1999.90;999.90;;;20.20;82.00;;;;;;5012010;28;20058;-85
2021/08/18 09:14:45;;;;;;;1999.90;999.90;;;20.10;80.20;;;;;;5011895;28;20018;-85
2021/08/18 09:17:35;;;;;;;1999.90;999.90;;;20.20;80.50;;;;;;5011872;28;20383;-85
2021/08/18 09:20:06;;;;;;;1999.90;999.90;;;20.20;80.90;;;;;;5012787;28;20109;-86
2021/08/18 09:22:36;;;;;;;1999.90;999.90;;;20.30;80.50;;;;;;5011824;28;20030;-87
2021/08/18 09:25:20;;;;;;;1999.90;999.90;;;20.30;82.30;;;;;;5011700;28;20030;-83
2021/08/18 09:27:57;;;;;;;1999.90;999.90;;;20.50;80.20;;;;;;5011587;28;20116;-83
2021/08/18 09:30:23;;;;;;;1999.90;999.90;;;20.70;78.20;;;;;;5011587;28;20026;-85
2021/08/18 09:32:49;;;;;;;1999.90;999.90;;;20.70;76.10;;;;;;5012764;28;20030;-85
2021/08/18 09:35:18;;;;;;;1999.90;999.90;;;20.70;75.50;;;;;;5012783;28;20022;-85
2021/08/18 09:38:11;;;;;;;1999.90;999.90;;;20.90;76.10;;;;;;5011815;28;20120;-83
2021/08/18 09:40:46;;;;;;;1999.90;999.90;;;21.00;75.20;;;;;;5009420;28;20099;-85
2021/08/18 09:43:26;;;;;;;1999.90;999.90;;;21.20;75.50;;;;;;5010957;28;20136;-83
2021/08/18 09:46:03;;;;;;;1999.90;999.90;;;21.40;76.00;;;;;;5011603;28;20030;-84
2021/08/18 09:48:33;;;;;;;1999.90;999.90;;;21.70;74.80;;;;;;5011970;28;20141;-83
2021/08/18 09:51:12;;;;;;;1999.90;999.90;;;21.80;74.10;;;;;;5015218;28;20026;-83
2021/08/18 09:53:43;;;;;;;1999.90;999.90;;;22.00;72.20;;;;;;5015897;28;20049;-87
2021/08/18 09:56:14;;;;;;;1999.90;999.90;;;22.30;76.70;;;;;;5018009;28;20021;-88
2021/08/18 09:58:47;;;;;;;1999.90;999.90;;;22.50;74.30;;;;;;5017814;28;20496;-84
2021/08/18 10:01:15;;;;;;;1999.90;999.90;;;22.70;70.80;;;;;;5017218;28;20406;-80
2021/08/18 10:03:43;;;;;;;1999.90;999.90;;;22.50;70.20;;;;;;5019990;28;20531;-80
2021/08/18 10:06:10;;;;;;;1999.90;999.90;;;22.50;70.30;;;;;;5015771;28;20022;-82
2021/08/18 10:08:37;;;;;;;1999.90;999.90;;;22.70;70.10;;;;;;5015944;28;20068;-82
2021/08/18 10:11:04;;;;;;;1999.90;999.90;;;22.60;68.90;;;;;;5015619;28;20041;-82
2021/08/18 10:13:31;;;;;;;1999.90;999.90;;;22.70;70.30;;;;;;5015831;28;20025;-81
2021/08/18 10:15:57;;;;;;;1999.90;999.90;;;22.90;68.60;;;;;;5015947;28;20084;-82
2021/08/18 10:18:46;;;;;;;1999.90;999.90;;;22.50;66.20;;;;;;5015754;28;20033;-83
2021/08/18 10:21:18;;;;;;;1999.90;999.90;;;22.40;67.50;;;;;;5015695;28;20022;-83
2021/08/18 10:23:55;;;;;;;1999.90;999.90;;;22.40;69.10;;;;;;5015673;28;20436;-82
2021/08/18 10:26:48;;;;;;;1999.90;999.90;;;22.40;69.00;;;;;;5015527;28;20080;-82
2021/08/18 10:29:19;;;;;;;1999.90;999.90;;;22.50;69.60;;;;;;5013817;28;20092;-83
2021/08/18 10:31:45;;;;;;;1999.90;999.90;;;22.80;69.00;;;;;;5015618;28;20079;-82
2021/08/18 10:34:23;;;;;;;1999.90;999.90;;;23.20;69.70;;;;;;5015449;28;20029;-83
2021/08/18 10:36:53;;;;;;;1999.90;999.90;;;23.50;67.60;;;;;;5015516;28;20474;-83
2021/08/18 10:39:19;;;;;;;1999.90;999.90;;;23.50;67.30;;;;;;5015417;28;20018;-82
2021/08/18 10:42:07;;;;;;;1999.90;999.90;;;23.20;67.30;;;;;;5015192;28;20029;-84
2021/08/18 10:44:36;;;;;;;1999.90;999.90;;;23.20;67.40;;;;;;5015684;28;20048;-83
2021/08/18 10:47:21;;;;;;;1999.90;999.90;;;23.00;66.50;;;;;;5015443;28;20057;-84
2021/08/18 10:49:58;;;;;;;1999.90;999.90;;;23.00;68.80;;;;;;5015290;28;20144;-84
2021/08/18 10:52:33;;;;;;;1999.90;999.90;;;22.90;67.80;;;;;;5015131;28;20022;-84
2021/08/18 10:55:05;;;;;;;1999.90;999.90;;;23.00;67.10;;;;;;5016402;28;20033;-83
2021/08/18 10:57:41;;;;;;;1999.90;999.90;;;23.00;67.20;;;;;;5015079;28;20120;-83
2021/08/18 11:00:22;;;;;;;1999.90;999.90;;;22.90;67.50;;;;;;5014573;28;20022;-83
2021/08/18 11:03:02;;;;;;;1999.90;999.90;;;22.90;68.30;;;;;;5014878;28;20049;-83
2021/08/18 11:05:37;;;;;;;1999.90;999.90;;;22.90;67.40;;;;;;5014932;28;20062;-84
2021/08/18 11:08:10;;;;;;;1999.90;999.90;;;23.10;66.30;;;;;;5014757;28;20481;-81
2021/08/18 11:10:40;;;;;;;1999.90;999.90;;;23.30;65.60;;;;;;5014830;28;20033;-83
2021/08/18 11:13:08;;;;;;;1999.90;999.90;;;23.20;64.80;;;;;;5014634;28;20049;-84
2021/08/18 11:15:34;;;;;;;1999.90;999.90;;;23.40;64.60;;;;;;5014476;28;20068;-81
2021/08/18 11:18:03;;;;;;;1999.90;999.90;;;23.30;63.80;;;;;;5014579;28;20057;-82
2021/08/18 11:20:29;;;;;;;1999.90;999.90;;;23.30;63.20;;;;;;5014315;28;20026;-82
2021/08/18 11:22:54;;;;;;;1999.90;999.90;;;23.40;63.90;;;;;;5014138;28;20068;-83
2021/08/18 11:25:21;;;;;;;1999.90;999.90;;;23.40;63.20;;;;;;5014247;28;20072;-82
2021/08/18 11:27:53;;;;;;;1999.90;999.90;;;23.50;61.60;;;;;;5014405;28;20092;-83
2021/08/18 11:30:27;;;;;;;1999.90;999.90;;;23.20;61.50;;;;;;5014327;28;20374;-82
2021/08/18 11:32:53;;;;;;;1999.90;999.90;;;23.40;62.30;;;;;;5014189;28;20101;-81
2021/08/18 11:35:33;;;;;;;1999.90;999.90;;;23.50;62.50;;;;;;5014415;28;20469;-82
2021/08/18 11:38:06;;;;;;;1999.90;999.90;;;23.80;62.60;;;;;;5014233;28;20477;-82
2021/08/18 11:40:33;;;;;;;1999.90;999.90;;;23.90;62.40;;;;;;5014194;28;20071;-81
2021/08/18 11:42:58;;;;;;;1999.90;999.90;;;23.90;63.20;;;;;;5013948;28;20058;-82
2021/08/18 11:45:25;;;;;;;1999.90;999.90;;;23.90;65.10;;;;;;5014486;28;20025;-87
2021/08/18 11:47:51;;;;;;;1999.90;999.90;;;23.80;63.90;;;;;;5013893;28;20113;-86
2021/08/18 11:50:22;;;;;;;1999.90;999.90;;;23.70;64.00;;;;;;5014274;28;20026;-85
2021/08/18 11:52:58;;;;;;;1999.90;999.90;;;23.60;65.50;;;;;;5014531;28;20026;-87
2021/08/18 11:55:27;;;;;;;1999.90;999.90;;;23.60;63.30;;;;;;5014789;28;20033;-84
2021/08/18 11:58:08;;;;;;;1999.90;999.90;;;23.40;63.40;;;;;;5015032;28;20241;-84
2021/08/18 12:00:39;;;;;;;1999.90;999.90;;;23.10;63.90;;;;;;5014608;28;20087;-88